Time,TemperatureF,DewpointF,PressureIn,WindDirection,WindDirectionDegrees,WindSpeedMPH,WindSpeedGustMPH,Humidity,HourlyPrecipIn,Conditions,Clouds,dailyrainin,SolarRadiationWatts/m^2,SoftwareType,DateUTC
2013-03-24 00:22:00,66.0,64.0,-100.00,NE,43,5.0,17.0,94,0.00,,,0.01,0.000000,,2013-03-24 10:22:00,
2013-03-24 00:32:00,66.0,64.0,-100.00,NE,43,5.0,17.0,94,0.00,,,0.01,0.000000,,2013-03-24 10:32:00,
2013-03-24 00:42:00,66.0,64.0,-100.00,NE,43,5.0,17.0,94,0.00,,,0.01,0.000000,,2013-03-24 10:42:00,
2013-03-24 00:52:00,66.0,64.0,-100.00,NE,43,5.0,17.0,94,0.00,,,0.01,0.000000,,2013-03-24 10:52:00,
2013-03-24 01:22:00,66.0,65.0,-100.00,SW,223,5.0,13.0,95,0.00,,,0.01,0.000000,,2013-03-24 11:22:00,
2013-03-24 01:32:00,66.0,65.0,-100.00,SW,223,5.0,13.0,95,0.00,,,0.01,0.000000,,2013-03-24 11:32:00,
2013-03-24 01:42:00,66.0,65.0,-100.00,SW,223,5.0,13.0,95,0.00,,,0.01,0.000000,,2013-03-24 11:42:00,
2013-03-24 01:51:00,66.0,65.0,-100.00,SW,223,5.0,13.0,95,0.00,,,0.01,0.000000,,2013-03-24 11:51:00,
2013-03-24 02:22:00,66.0,65.0,-100.00,ENE,76,5.0,13.0,96,0.01,,,0.01,0.000000,,2013-03-24 12:22:00,
2013-03-24 02:32:00,66.0,65.0,-100.00,ENE,76,5.0,13.0,96,0.01,,,0.01,0.000000,,2013-03-24 12:32:00,
2013-03-24 02:42:00,66.0,65.0,-100.00,ENE,76,5.0,13.0,96,0.01,,,0.01,0.000000,,2013-03-24 12:42:00,
2013-03-24 02:52:00,66.0,65.0,-100.00,ENE,76,5.0,13.0,96,0.01,,,0.01,0.000000,,2013-03-24 12:52:00,
2013-03-24 03:22:00,66.0,65.0,-100.00,NNE,26,3.0,10.0,95,0.00,,,0.01,0.000000,,2013-03-24 13:22:00,
2013-03-24 03:32:00,66.0,65.0,-100.00,NNE,26,3.0,10.0,95,0.00,,,0.01,0.000000,,2013-03-24 13:32:00,
2013-03-24 03:42:00,66.0,65.0,-100.00,NNE,26,3.0,10.0,95,0.00,,,0.01,0.000000,,2013-03-24 13:42:00,
2013-03-24 03:52:00,66.0,65.0,-100.00,NNE,26,3.0,10.0,95,0.00,,,0.01,0.000000,,2013-03-24 13:52:00,
2013-03-24 04:22:00,66.0,65.0,-100.00,East,90,2.0,12.0,97,0.00,,,0.01,0.000000,,2013-03-24 14:22:00,
2013-03-24 04:32:00,66.0,65.0,-100.00,East,90,2.0,12.0,97,0.00,,,0.01,0.000000,,2013-03-24 14:32:00,
2013-03-24 04:42:00,66.0,65.0,-100.00,East,90,2.0,12.0,97,0.00,,,0.01,0.000000,,2013-03-24 14:42:00,
2013-03-24 04:52:00,66.0,65.0,-100.00,East,90,2.0,12.0,97,0.00,,,0.01,0.000000,,2013-03-24 14:52:00,
2013-03-24 05:22:00,64.0,64.0,-100.00,NE,39,5.0,10.0,99,0.00,,,0.01,0.000000,,2013-03-24 15:22:00,
2013-03-24 05:33:00,64.0,64.0,-100.00,NE,39,5.0,10.0,99,0.00,,,0.01,0.000000,,2013-03-24 15:33:00,
2013-03-24 05:43:00,64.0,64.0,-100.00,NE,39,5.0,10.0,99,0.00,,,0.01,0.000000,,2013-03-24 15:43:00,
2013-03-24 05:52:00,64.0,64.0,-100.00,NE,39,5.0,10.0,99,0.00,,,0.01,0.000000,,2013-03-24 15:52:00,
2013-03-24 06:22:00,66.0,65.0,-100.00,NW,326,4.0,13.0,95,0.00,,,0.01,0.000000,,2013-03-24 16:22:00,
2013-03-24 06:32:00,66.0,65.0,-100.00,NW,326,4.0,13.0,95,0.00,,,0.01,0.000000,,2013-03-24 16:32:00,
2013-03-24 06:42:00,66.0,65.0,-100.00,NW,326,4.0,13.0,95,0.00,,,0.01,0.000000,,2013-03-24 16:42:00,
2013-03-24 06:52:00,66.0,65.0,-100.00,NW,326,4.0,13.0,95,0.00,,,0.01,0.000000,,2013-03-24 16:52:00,
2013-03-24 07:22:00,65.0,63.0,-100.00,NNW,335,3.0,16.0,93,0.00,,,0.01,2.000000,,2013-03-24 17:22:00,
2013-03-24 07:32:00,65.0,63.0,-100.00,NNW,335,3.0,16.0,93,0.00,,,0.01,2.000000,,2013-03-24 17:32:00,
2013-03-24 07:42:00,65.0,63.0,-100.00,NNW,335,3.0,16.0,93,0.00,,,0.01,2.000000,,2013-03-24 17:42:00,
2013-03-24 07:52:00,65.0,63.0,-100.00,NNW,335,3.0,16.0,93,0.00,,,0.01,2.000000,,2013-03-24 17:52:00,
2013-03-24 08:22:00,67.0,65.0,-100.00,NNE,31,2.0,13.0,93,0.00,,,0.01,20.000000,,2013-03-24 18:22:00,
2013-03-24 08:32:00,67.0,65.0,-100.00,NNE,31,2.0,13.0,93,0.00,,,0.01,20.000000,,2013-03-24 18:32:00,
2013-03-24 08:42:00,67.0,65.0,-100.00,NNE,31,2.0,13.0,93,0.00,,,0.01,20.000000,,2013-03-24 18:42:00,
2013-03-24 08:52:00,67.0,65.0,-100.00,NNE,31,2.0,13.0,93,0.00,,,0.01,20.000000,,2013-03-24 18:52:00,
2013-03-24 09:22:00,68.0,65.0,-100.00,SSE,161,2.0,7.0,90,0.00,,,0.01,101.000000,,2013-03-24 19:22:00,
2013-03-24 09:32:00,68.0,65.0,-100.00,SSE,161,2.0,7.0,90,0.00,,,0.01,101.000000,,2013-03-24 19:32:00,
2013-03-24 09:42:00,68.0,65.0,-100.00,SSE,161,2.0,7.0,90,0.00,,,0.01,101.000000,,2013-03-24 19:42:00,
2013-03-24 09:52:00,68.0,65.0,-100.00,SSE,161,2.0,7.0,90,0.00,,,0.01,101.000000,,2013-03-24 19:52:00,
2013-03-24 10:22:00,64.0,64.0,-100.00,NNW,338,3.0,11.0,99,0.04,,,0.05,78.000000,,2013-03-24 20:22:00,
2013-03-24 10:32:00,64.0,64.0,-100.00,NNW,338,3.0,11.0,99,0.04,,,0.05,78.000000,,2013-03-24 20:32:00,
2013-03-24 10:42:00,64.0,64.0,-100.00,NNW,338,3.0,11.0,99,0.04,,,0.05,78.000000,,2013-03-24 20:42:00,
2013-03-24 10:52:00,64.0,64.0,-100.00,NNW,338,3.0,11.0,99,0.04,,,0.05,78.000000,,2013-03-24 20:52:00,
2013-03-24 11:22:00,66.0,66.0,-100.00,NW,308,2.0,9.0,100,0.05,,,0.10,95.000000,,2013-03-24 21:22:00,
2013-03-24 11:33:00,66.0,66.0,-100.00,NW,308,2.0,9.0,100,0.05,,,0.10,95.000000,,2013-03-24 21:33:00,
2013-03-24 11:43:00,66.0,66.0,-100.00,NW,308,2.0,9.0,100,0.05,,,0.10,95.000000,,2013-03-24 21:43:00,
2013-03-24 11:52:00,66.0,66.0,-100.00,NW,308,2.0,9.0,100,0.05,,,0.10,95.000000,,2013-03-24 21:52:00,
2013-03-24 12:22:00,67.0,67.0,-100.00,SSW,199,3.0,7.0,100,0.02,,,0.12,140.000000,,2013-03-24 22:22:00,
2013-03-24 12:33:00,67.0,67.0,-100.00,SSW,199,3.0,7.0,100,0.02,,,0.12,140.000000,,2013-03-24 22:33:00,
2013-03-24 12:42:00,67.0,67.0,-100.00,SSW,199,3.0,7.0,100,0.02,,,0.12,140.000000,,2013-03-24 22:42:00,
2013-03-24 12:52:00,67.0,67.0,-100.00,SSW,199,3.0,7.0,100,0.02,,,0.12,140.000000,,2013-03-24 22:52:00,
2013-03-24 13:22:00,66.0,66.0,-100.00,South,181,2.0,7.0,100,0.05,,,0.17,124.000000,,2013-03-24 23:22:00,
2013-03-24 13:32:00,66.0,66.0,-100.00,South,181,2.0,7.0,100,0.05,,,0.17,124.000000,,2013-03-24 23:32:00,
2013-03-24 13:42:00,66.0,66.0,-100.00,South,181,2.0,7.0,100,0.05,,,0.17,124.000000,,2013-03-24 23:42:00,
2013-03-24 13:52:00,66.0,66.0,-100.00,South,181,2.0,7.0,100,0.05,,,0.17,124.000000,,2013-03-24 23:52:00,
2013-03-24 14:22:00,69.0,68.0,-100.00,NNW,328,3.0,8.0,95,0.01,,,0.18,324.000000,,2013-03-25 00:22:00,
2013-03-24 14:32:00,69.0,68.0,-100.00,NNW,328,3.0,8.0,95,0.01,,,0.18,324.000000,,2013-03-25 00:32:00,
2013-03-24 14:42:00,69.0,68.0,-100.00,NNW,328,3.0,8.0,95,0.01,,,0.18,324.000000,,2013-03-25 00:42:00,
2013-03-24 14:52:00,69.0,68.0,-100.00,NNW,328,3.0,8.0,95,0.01,,,0.18,324.000000,,2013-03-25 00:52:00,
2013-03-24 15:22:00,69.0,68.0,-100.00,NNE,22,2.0,8.0,98,0.02,,,0.20,193.000000,,2013-03-25 01:22:00,
2013-03-24 15:32:00,69.0,68.0,-100.00,NNE,22,2.0,8.0,98,0.02,,,0.20,193.000000,,2013-03-25 01:32:00,
2013-03-24 15:42:00,69.0,68.0,-100.00,NNE,22,2.0,8.0,98,0.02,,,0.20,193.000000,,2013-03-25 01:42:00,
2013-03-24 15:52:00,69.0,68.0,-100.00,NNE,22,2.0,8.0,98,0.02,,,0.20,193.000000,,2013-03-25 01:52:00,
2013-03-24 16:22:00,66.0,66.0,-100.00,ENE,72,5.0,11.0,99,0.01,,,0.21,155.000000,,2013-03-25 02:22:00,
2013-03-24 16:32:00,66.0,66.0,-100.00,ENE,72,5.0,11.0,99,0.01,,,0.21,155.000000,,2013-03-25 02:32:00,
2013-03-24 16:42:00,66.0,66.0,-100.00,ENE,72,5.0,11.0,99,0.01,,,0.21,155.000000,,2013-03-25 02:42:00,
2013-03-24 16:51:00,66.0,66.0,-100.00,ENE,72,5.0,11.0,99,0.01,,,0.21,155.000000,,2013-03-25 02:51:00,
2013-03-24 17:22:00,66.0,66.0,-100.00,NE,50,9.0,18.0,100,0.01,,,0.22,148.000000,,2013-03-25 03:22:00,
2013-03-24 17:33:00,66.0,66.0,-100.00,NE,50,9.0,18.0,100,0.01,,,0.22,148.000000,,2013-03-25 03:33:00,
2013-03-24 17:42:00,66.0,66.0,-100.00,NE,50,9.0,18.0,100,0.01,,,0.22,148.000000,,2013-03-25 03:42:00,
2013-03-24 17:52:00,66.0,66.0,-100.00,NE,50,9.0,18.0,100,0.01,,,0.22,148.000000,,2013-03-25 03:52:00,
2013-03-24 18:22:00,66.0,66.0,-100.00,West,259,6.0,19.0,99,0.00,,,0.22,150.000000,,2013-03-25 04:22:00,
2013-03-24 18:32:00,66.0,66.0,-100.00,West,259,6.0,19.0,99,0.00,,,0.22,150.000000,,2013-03-25 04:32:00,
2013-03-24 18:42:00,66.0,66.0,-100.00,West,259,6.0,19.0,99,0.00,,,0.22,150.000000,,2013-03-25 04:42:00,
2013-03-24 18:52:00,66.0,66.0,-100.00,West,259,6.0,19.0,99,0.00,,,0.22,150.000000,,2013-03-25 04:52:00,
2013-03-24 19:22:00,65.0,65.0,-100.00,WNW,302,3.0,17.0,100,0.00,,,0.22,33.000000,,2013-03-25 05:22:00,
2013-03-24 19:32:00,65.0,65.0,-100.00,WNW,302,3.0,17.0,100,0.00,,,0.22,33.000000,,2013-03-25 05:32:00,
2013-03-24 19:42:00,65.0,65.0,-100.00,WNW,302,3.0,17.0,100,0.00,,,0.22,33.000000,,2013-03-25 05:42:00,
2013-03-24 19:52:00,65.0,65.0,-100.00,WNW,302,3.0,17.0,100,0.00,,,0.22,33.000000,,2013-03-25 05:52:00,
2013-03-24 20:22:00,64.0,64.0,-100.00,NNW,338,3.0,7.0,100,0.00,,,0.22,0.000000,,2013-03-25 06:22:00,
2013-03-24 20:32:00,64.0,64.0,-100.00,NNW,338,3.0,7.0,100,0.00,,,0.22,0.000000,,2013-03-25 06:32:00,
2013-03-24 20:42:00,64.0,64.0,-100.00,NNW,338,3.0,7.0,100,0.00,,,0.22,0.000000,,2013-03-25 06:42:00,
2013-03-24 20:52:00,64.0,64.0,-100.00,NNW,338,3.0,7.0,100,0.00,,,0.22,0.000000,,2013-03-25 06:52:00,
2013-03-24 21:22:00,64.0,64.0,-100.00,NNE,32,2.0,4.0,100,0.00,,,0.22,0.000000,,2013-03-25 07:22:00,
2013-03-24 21:32:00,64.0,64.0,-100.00,NNE,32,2.0,4.0,100,0.00,,,0.22,0.000000,,2013-03-25 07:32:00,
2013-03-24 21:42:00,64.0,64.0,-100.00,NNE,32,2.0,4.0,100,0.00,,,0.22,0.000000,,2013-03-25 07:42:00,
2013-03-24 21:52:00,64.0,64.0,-100.00,NNE,32,2.0,4.0,100,0.00,,,0.22,0.000000,,2013-03-25 07:52:00,
2013-03-24 22:22:00,63.0,63.0,-100.00,East,97,2.0,5.0,100,0.00,,,0.22,0.000000,,2013-03-25 08:22:00,
2013-03-24 22:32:00,63.0,63.0,-100.00,East,97,2.0,5.0,100,0.00,,,0.22,0.000000,,2013-03-25 08:32:00,
2013-03-24 22:42:00,63.0,63.0,-100.00,East,97,2.0,5.0,100,0.00,,,0.22,0.000000,,2013-03-25 08:42:00,
2013-03-24 22:52:00,63.0,63.0,-100.00,East,97,2.0,5.0,100,0.00,,,0.22,0.000000,,2013-03-25 08:52:00,
2013-03-24 23:22:00,61.0,61.0,-100.00,NNW,348,2.0,7.0,100,0.00,,,0.22,0.000000,,2013-03-25 09:22:00,
2013-03-24 23:32:00,61.0,61.0,-100.00,NNW,348,2.0,7.0,100,0.00,,,0.22,0.000000,,2013-03-25 09:32:00,
2013-03-24 23:42:00,61.0,61.0,-100.00,NNW,348,2.0,7.0,100,0.00,,,0.22,0.000000,,2013-03-25 09:42:00,
2013-03-24 23:52:00,61.0,61.0,-100.00,NNW,348,2.0,7.0,100,0.00,,,0.22,0.000000,,2013-03-25 09:52:00,